Time;durP1;ratioP1;P1;durP2;ratioP2;P2;SDS_P1;SDS_P2;PMS_P1;PMS_P2;Temp;Humidity;BMP_temperature;BMP_pressure;BME280_temperature;BME280_humidity;BME280_pressure;Samples;Min_cycle;Max_cycle;Signal;HPM_P1;HPM_P2
2022/05/17 00:01:10;;;;;;;9.90;9.20;;;;;;;;;;5041460;28;20325;-54
2022/05/17 00:03:36;;;;;;;9.17;8.47;;;;;;;;;;5046979;28;20220;-55
2022/05/17 00:06:04;;;;;;;10.73;9.93;;;;;;;;;;5052058;28;20184;-54
2022/05/17 00:08:31;;;;;;;10.40;9.50;;;;;;;;;;5051490;28;20623;-54
2022/05/17 00:10:57;;;;;;;10.57;9.77;;;;;;;;;;5049448;28;20193;-54
2022/05/17 00:13:23;;;;;;;9.50;8.80;;;;;;;;;;5049478;28;20173;-54
2022/05/17 00:15:54;;;;;;;9.70;8.90;;;;;;;;;;5040634;28;20195;-54
2022/05/17 00:18:22;;;;;;;10.10;9.30;;;;;;;;;;5033846;28;20232;-54
2022/05/17 00:20:48;;;;;;;10.27;9.37;;;;;;;;;;5059134;28;20652;-54
2022/05/17 00:23:17;;;;;;;9.73;8.93;;;;;;;;;;5060412;28;20209;-55
2022/05/17 00:25:47;;;;;;;8.93;8.23;;;;;;;;;;5029444;28;20221;-54
2022/05/17 00:28:14;;;;;;;10.90;9.93;;;;;;;;;;5052822;28;20490;-56
2022/05/17 00:30:40;;;;;;;9.70;8.90;;;;;;;;;;5061153;28;20601;-55
2022/05/17 00:33:06;;;;;;;10.00;9.20;;;;;;;;;;5062726;28;20177;-55
2022/05/17 00:35:33;;;;;;;10.03;9.23;;;;;;;;;;5066644;28;20176;-55
2022/05/17 00:37:59;;;;;;;9.23;8.43;;;;;;;;;;5043745;28;20253;-55
2022/05/17 00:40:26;;;;;;;9.90;9.10;;;;;;;;;;5064449;28;20187;-55
2022/05/17 00:42:52;;;;;;;8.93;8.33;;;;;;;;;;5049258;28;20209;-54
2022/05/17 00:45:19;;;;;;;9.70;9.07;;;;;;;;;;5035362;28;20622;-54
2022/05/17 00:47:48;;;;;;;9.80;9.00;;;;;;;;;;5029445;28;20189;-54
2022/05/17 00:50:14;;;;;;;10.00;9.30;;;;;;;;;;5034091;28;20184;-55
2022/05/17 00:52:52;;;;;;;10.57;9.67;;;;;;;;;;5046596;28;20221;-54
2022/05/17 00:55:27;;;;;;;9.73;8.93;;;;;;;;;;5029224;28;20604;-55
2022/05/17 00:58:12;;;;;;;9.37;8.60;;;;;;;;;;5035921;28;20864;-55
2022/05/17 01:00:41;;;;;;;9.63;8.90;;;;;;;;;;5048959;28;20667;-55
2022/05/17 01:03:08;;;;;;;9.00;8.40;;;;;;;;;;5043942;28;20212;-55
2022/05/17 01:05:37;;;;;;;9.10;8.40;;;;;;;;;;5057572;28;20640;-54
2022/05/17 01:08:03;;;;;;;9.60;8.90;;;;;;;;;;5055488;28;20187;-55
2022/05/17 01:10:29;;;;;;;9.57;8.80;;;;;;;;;;5047695;28;20188;-55
2022/05/17 01:15:45;;;;;;;9.27;8.47;;;;;;;;;;5057217;28;20180;-55
2022/05/17 01:18:11;;;;;;;9.37;8.67;;;;;;;;;;5061954;28;20215;-54
2022/05/17 01:20:38;;;;;;;10.20;9.40;;;;;;;;;;5025134;28;20431;-55
2022/05/17 01:23:04;;;;;;;9.40;8.80;;;;;;;;;;5049914;28;20200;-55
2022/05/17 01:25:30;;;;;;;8.97;8.37;;;;;;;;;;5035118;28;20208;-55
2022/05/17 01:28:02;;;;;;;8.93;8.33;;;;;;;;;;5048331;28;20920;-55
2022/05/17 01:30:29;;;;;;;8.30;7.70;;;;;;;;;;5051303;28;20188;-55
2022/05/17 01:32:56;;;;;;;8.87;8.10;;;;;;;;;;5047394;28;20182;-54
2022/05/17 01:35:23;;;;;;;8.53;7.83;;;;;;;;;;5035579;28;20183;-55
2022/05/17 01:37:55;;;;;;;8.60;7.77;;;;;;;;;;5061939;28;20539;-54
2022/05/17 01:40:21;;;;;;;8.00;7.30;;;;;;;;;;5059233;28;20170;-55
2022/05/17 01:42:47;;;;;;;9.30;8.60;;;;;;;;;;5050604;28;20207;-55
2022/05/17 01:45:14;;;;;;;9.83;9.07;;;;;;;;;;5057096;28;20267;-54
2022/05/17 01:47:40;;;;;;;8.47;7.83;;;;;;;;;;5045228;28;20187;-55
2022/05/17 01:50:06;;;;;;;8.07;7.47;;;;;;;;;;5050279;28;20185;-55
2022/05/17 01:52:33;;;;;;;8.43;7.83;;;;;;;;;;5031924;28;20176;-55
2022/05/17 01:54:59;;;;;;;9.10;8.40;;;;;;;;;;5055241;28;20621;-54
2022/05/17 01:57:25;;;;;;;8.03;7.43;;;;;;;;;;5054612;28;20663;-54
2022/05/17 01:59:51;;;;;;;9.17;8.57;;;;;;;;;;5034037;28;20492;-55
2022/05/17 02:02:17;;;;;;;8.73;8.10;;;;;;;;;;5047905;28;20491;-54
2022/05/17 02:04:43;;;;;;;9.37;8.67;;;;;;;;;;5048648;28;20204;-55
2022/05/17 02:07:10;;;;;;;8.50;7.90;;;;;;;;;;5046552;28;20621;-54
2022/05/17 02:09:36;;;;;;;8.60;8.00;;;;;;;;;;5035776;28;20190;-54
2022/05/17 02:12:03;;;;;;;8.60;8.00;;;;;;;;;;5051717;28;20187;-55
2022/05/17 02:14:29;;;;;;;8.03;7.40;;;;;;;;;;5055724;28;20816;-54
2022/05/17 02:16:56;;;;;;;8.27;7.67;;;;;;;;;;5058923;28;20183;-54
2022/05/17 02:19:23;;;;;;;9.00;8.20;;;;;;;;;;5046953;28;20539;-54
2022/05/17 02:21:49;;;;;;;8.90;8.20;;;;;;;;;;5027337;28;20186;-55
2022/05/17 02:24:16;;;;;;;9.10;8.37;;;;;;;;;;5049626;28;20197;-54
2022/05/17 02:26:42;;;;;;;7.67;7.07;;;;;;;;;;5061756;28;20259;-55
2022/05/17 02:29:08;;;;;;;8.67;8.07;;;;;;;;;;5050225;28;20253;-54
2022/05/17 02:31:35;;;;;;;8.90;8.20;;;;;;;;;;5068616;28;20513;-55
2022/05/17 02:34:02;;;;;;;8.73;7.97;;;;;;;;;;5050563;28;20288;-55
2022/05/17 02:36:29;;;;;;;7.87;7.27;;;;;;;;;;5058118;28;20695;-54
2022/05/17 02:38:55;;;;;;;8.83;8.03;;;;;;;;;;5054685;28;20271;-54
2022/05/17 02:41:23;;;;;;;8.53;7.93;;;;;;;;;;5050676;28;20205;-55
2022/05/17 02:43:50;;;;;;;9.20;8.40;;;;;;;;;;5037718;28;20196;-55
2022/05/17 02:46:16;;;;;;;9.73;8.93;;;;;;;;;;5049878;28;20193;-55
2022/05/17 02:48:43;;;;;;;8.10;7.50;;;;;;;;;;5031269;28;20277;-55
2022/05/17 02:51:19;;;;;;;8.33;7.67;;;;;;;;;;5059855;28;20522;-55
2022/05/17 02:53:45;;;;;;;8.23;7.63;;;;;;;;;;5063999;28;20238;-55
2022/05/17 02:56:11;;;;;;;8.63;8.03;;;;;;;;;;5054157;28;20208;-55
2022/05/17 02:58:38;;;;;;;8.03;7.43;;;;;;;;;;5035455;28;20261;-55
2022/05/17 03:01:05;;;;;;;9.77;9.07;;;;;;;;;;5032285;28;20799;-56
2022/05/17 03:03:32;;;;;;;8.53;7.77;;;;;;;;;;5037711;28;20603;-55
2022/05/17 03:05:58;;;;;;;8.67;8.07;;;;;;;;;;5060475;28;20256;-55
2022/05/17 03:08:24;;;;;;;8.60;8.00;;;;;;;;;;5036630;28;20192;-56
2022/05/17 03:10:51;;;;;;;9.37;8.57;;;;;;;;;;5033356;28;20239;-56
2022/05/17 03:13:17;;;;;;;8.30;7.70;;;;;;;;;;5057656;28;20226;-55
2022/05/17 03:15:43;;;;;;;8.13;7.47;;;;;;;;;;5045018;28;20716;-55
2022/05/17 03:18:09;;;;;;;23.47;22.20;;;;;;;;;;5042075;28;20320;-55
2022/05/17 03:20:35;;;;;;;9.17;8.47;;;;;;;;;;5059837;28;20646;-55
2022/05/17 03:23:02;;;;;;;9.27;8.57;;;;;;;;;;5045126;28;20550;-56
2022/05/17 03:25:28;;;;;;;8.43;7.73;;;;;;;;;;5057416;28;20208;-56
2022/05/17 03:27:55;;;;;;;9.10;8.27;;;;;;;;;;5061654;28;20525;-55
2022/05/17 03:30:21;;;;;;;8.17;7.57;;;;;;;;;;5053925;28;20243;-55
2022/05/17 03:32:47;;;;;;;8.13;7.53;;;;;;;;;;5036991;28;20173;-56
2022/05/17 03:35:13;;;;;;;8.83;8.13;;;;;;;;;;5059613;28;20569;-56
2022/05/17 03:37:39;;;;;;;8.60;7.90;;;;;;;;;;5030325;28;20659;-56
2022/05/17 03:40:08;;;;;;;8.70;8.10;;;;;;;;;;5048727;28;20246;-55
2022/05/17 03:42:34;;;;;;;7.57;7.00;;;;;;;;;;5057570;28;20720;-55
2022/05/17 03:45:00;;;;;;;8.43;7.63;;;;;;;;;;5040443;28;20211;-55
2022/05/17 03:47:27;;;;;;;7.70;7.10;;;;;;;;;;5060120;28;20661;-55
2022/05/17 03:49:53;;;;;;;9.93;9.23;;;;;;;;;;5034191;28;20176;-55
2022/05/17 03:52:19;;;;;;;8.30;7.60;;;;;;;;;;5048815;28;20193;-55
2022/05/17 03:54:45;;;;;;;9.60;8.90;;;;;;;;;;5048406;28;20197;-55
2022/05/17 03:57:11;;;;;;;7.27;6.77;;;;;;;;;;5049799;28;20196;-56
2022/05/17 03:59:37;;;;;;;7.73;7.13;;;;;;;;;;5051383;28;20187;-56
2022/05/17 04:02:04;;;;;;;9.23;8.43;;;;;;;;;;5043079;28;20188;-55
2022/05/17 04:04:30;;;;;;;7.53;6.83;;;;;;;;;;5050665;28;20215;-55
2022/05/17 04:06:56;;;;;;;7.53;6.93;;;;;;;;;;5052244;28;20174;-55
2022/05/17 04:09:22;;;;;;;10.07;9.37;;;;;;;;;;5052902;28;20180;-55
2022/05/17 04:11:48;;;;;;;8.50;7.67;;;;;;;;;;5056637;28;20358;-55
2022/05/17 04:14:14;;;;;;;7.23;6.67;;;;;;;;;;5049364;28;20181;-56
2022/05/17 04:16:40;;;;;;;8.43;7.80;;;;;;;;;;5031039;28;20189;-55
2022/05/17 04:19:07;;;;;;;7.87;7.20;;;;;;;;;;5051254;28;20685;-55
2022/05/17 04:21:34;;;;;;;7.87;7.07;;;;;;;;;;5042337;28;20181;-55
2022/05/17 04:24:00;;;;;;;7.00;6.50;;;;;;;;;;5053696;28;20367;-55
2022/05/17 04:26:26;;;;;;;8.00;7.30;;;;;;;;;;5051460;28;20771;-55
2022/05/17 04:28:52;;;;;;;7.10;6.50;;;;;;;;;;5059844;28;20188;-55
2022/05/17 04:31:18;;;;;;;6.50;6.00;;;;;;;;;;5051834;28;20174;-55
2022/05/17 04:33:44;;;;;;;7.63;6.93;;;;;;;;;;5059235;28;20609;-55
2022/05/17 04:36:11;;;;;;;7.30;6.30;;;;;;;;;;5049701;28;20259;-56
2022/05/17 04:38:37;;;;;;;6.83;6.33;;;;;;;;;;5037891;28;20183;-55
2022/05/17 04:41:04;;;;;;;7.33;6.73;;;;;;;;;;5050076;28;20292;-55
2022/05/17 04:43:30;;;;;;;7.67;7.07;;;;;;;;;;5036892;28;20342;-55
2022/05/17 04:45:57;;;;;;;7.13;6.43;;;;;;;;;;5048265;28;20260;-54
2022/05/17 04:48:24;;;;;;;7.00;6.43;;;;;;;;;;5052960;28;20676;-55
2022/05/17 04:50:51;;;;;;;6.53;5.93;;;;;;;;;;5032835;28;20181;-55
2022/05/17 04:53:17;;;;;;;6.97;5.93;;;;;;;;;;5052873;28;20193;-55
2022/05/17 04:55:43;;;;;;;8.27;6.10;;;;;;;;;;5053234;28;20278;-55
2022/05/17 04:58:10;;;;;;;7.00;6.40;;;;;;;;;;5029618;28;20224;-55
2022/05/17 05:00:36;;;;;;;11.30;10.50;;;;;;;;;;5057111;28;20326;-55
2022/05/17 05:03:02;;;;;;;8.10;7.30;;;;;;;;;;5064499;28;20211;-55
2022/05/17 05:05:28;;;;;;;7.37;6.77;;;;;;;;;;5046693;28;20177;-55
2022/05/17 05:07:54;;;;;;;6.60;6.07;;;;;;;;;;5028991;28;20263;-55
2022/05/17 05:10:21;;;;;;;7.50;6.77;;;;;;;;;;5065804;28;20287;-55
2022/05/17 05:12:47;;;;;;;7.40;6.80;;;;;;;;;;5036872;28;20184;-55
2022/05/17 05:15:13;;;;;;;6.60;6.10;;;;;;;;;;5054756;28;20192;-55
2022/05/17 05:17:40;;;;;;;7.47;6.80;;;;;;;;;;5062152;28;20188;-55
2022/05/17 05:20:08;;;;;;;7.80;7.03;;;;;;;;;;5030071;28;20181;-55
2022/05/17 05:22:34;;;;;;;7.87;7.07;;;;;;;;;;5036170;28;20184;-55
2022/05/17 05:25:00;;;;;;;6.60;6.00;;;;;;;;;;5049039;28;20211;-55
2022/05/17 05:27:30;;;;;;;6.87;6.37;;;;;;;;;;5027119;28;20351;-55
2022/05/17 05:29:56;;;;;;;6.67;6.07;;;;;;;;;;5049313;28;20180;-55
2022/05/17 05:32:23;;;;;;;7.33;6.63;;;;;;;;;;5063237;28;20258;-55
2022/05/17 05:34:49;;;;;;;6.87;6.20;;;;;;;;;;5027808;28;20600;-55
2022/05/17 05:37:16;;;;;;;7.47;6.03;;;;;;;;;;5049623;28;20183;-55
2022/05/17 05:39:42;;;;;;;7.73;6.17;;;;;;;;;;5050434;28;20639;-55
2022/05/17 05:42:08;;;;;;;6.63;6.03;;;;;;;;;;5050230;28;20216;-55
2022/05/17 05:44:34;;;;;;;7.00;6.40;;;;;;;;;;5042008;28;20225;-55
2022/05/17 05:47:01;;;;;;;6.83;6.23;;;;;;;;;;5054781;28;20191;-55
2022/05/17 05:49:27;;;;;;;8.00;6.80;;;;;;;;;;5063277;28;20263;-55
2022/05/17 05:51:53;;;;;;;6.93;6.23;;;;;;;;;;5033940;28;20185;-55
2022/05/17 05:54:19;;;;;;;6.53;5.80;;;;;;;;;;5026476;28;20318;-55
2022/05/17 05:56:45;;;;;;;7.07;6.40;;;;;;;;;;5027141;28;20173;-55
2022/05/17 05:59:12;;;;;;;6.40;5.90;;;;;;;;;;5049974;28;20176;-54
2022/05/17 06:01:39;;;;;;;6.27;5.77;;;;;;;;;;5054401;28;20548;-54
2022/05/17 06:04:05;;;;;;;7.47;6.77;;;;;;;;;;5053071;28;20213;-54
2022/05/17 06:06:31;;;;;;;6.43;5.93;;;;;;;;;;5036903;28;20242;-55
2022/05/17 06:08:57;;;;;;;6.77;6.00;;;;;;;;;;5046592;28;20189;-54
2022/05/17 06:11:23;;;;;;;6.37;5.87;;;;;;;;;;5057004;28;20311;-54
2022/05/17 06:13:50;;;;;;;6.73;5.97;;;;;;;;;;5048494;28;20284;-54
2022/05/17 06:16:17;;;;;;;6.60;6.00;;;;;;;;;;5056926;28;20319;-55
2022/05/17 06:18:44;;;;;;;7.37;6.63;;;;;;;;;;5066557;28;20677;-54
2022/05/17 06:21:10;;;;;;;6.93;6.33;;;;;;;;;;5037892;28;20226;-55
2022/05/17 06:23:36;;;;;;;7.80;6.30;;;;;;;;;;5055271;28;20272;-54
2022/05/17 06:26:03;;;;;;;8.53;6.83;;;;;;;;;;5053959;28;20287;-55
2022/05/17 06:28:29;;;;;;;7.27;6.70;;;;;;;;;;5032627;28;20191;-55
2022/05/17 06:30:58;;;;;;;7.00;6.30;;;;;;;;;;5036927;28;20937;-55
2022/05/17 06:33:29;;;;;;;6.60;6.00;;;;;;;;;;5061164;28;20238;-55
2022/05/17 06:35:55;;;;;;;6.77;6.13;;;;;;;;;;5050123;28;20244;-54
2022/05/17 06:38:22;;;;;;;7.03;6.33;;;;;;;;;;5037068;28;20166;-55
2022/05/17 06:40:48;;;;;;;7.03;6.33;;;;;;;;;;5050456;28;20208;-54
2022/05/17 06:43:14;;;;;;;7.13;6.43;;;;;;;;;;5060901;28;20201;-55
2022/05/17 06:45:40;;;;;;;7.10;6.50;;;;;;;;;;5049936;28;20253;-54
2022/05/17 06:48:06;;;;;;;7.00;6.40;;;;;;;;;;5058468;28;20189;-55
2022/05/17 06:50:33;;;;;;;8.03;6.67;;;;;;;;;;5068186;28;20670;-55
2022/05/17 06:52:59;;;;;;;7.20;6.50;;;;;;;;;;5063769;28;20205;-54
2022/05/17 06:55:26;;;;;;;6.60;6.00;;;;;;;;;;5031765;28;20262;-54
2022/05/17 06:57:52;;;;;;;7.00;6.40;;;;;;;;;;5039087;28;20600;-55
2022/05/17 07:00:19;;;;;;;7.63;6.93;;;;;;;;;;5049826;28;20341;-54
2022/05/17 07:02:45;;;;;;;8.43;6.33;;;;;;;;;;5065497;28;20169;-55
2022/05/17 07:05:12;;;;;;;8.63;7.10;;;;;;;;;;5067055;28;20807;-55
2022/05/17 07:07:38;;;;;;;7.73;6.87;;;;;;;;;;5051073;28;20168;-57
2022/05/17 07:13:08;;;;;;;9.03;7.30;;;;;;;;;;5064677;28;20223;-54
2022/05/17 07:15:35;;;;;;;8.80;7.27;;;;;;;;;;5064570;28;20188;-54
2022/05/17 07:18:00;;;;;;;8.87;7.23;;;;;;;;;;5060569;28;20356;-55
2022/05/17 07:20:27;;;;;;;7.43;6.73;;;;;;;;;;5067918;28;20405;-55
2022/05/17 07:22:53;;;;;;;8.00;7.40;;;;;;;;;;5050118;28;20180;-54
2022/05/17 07:25:20;;;;;;;11.13;7.27;;;;;;;;;;5049605;28;20162;-54
2022/05/17 07:27:46;;;;;;;7.87;7.00;;;;;;;;;;5049426;28;20234;-54
2022/05/17 07:30:16;;;;;;;7.87;6.97;;;;;;;;;;5053884;28;20560;-55
2022/05/17 07:32:46;;;;;;;6.93;6.23;;;;;;;;;;5042558;28;20185;-55
2022/05/17 07:35:13;;;;;;;6.97;6.27;;;;;;;;;;5048394;28;20445;-55
2022/05/17 07:37:40;;;;;;;7.50;6.23;;;;;;;;;;5048994;28;20262;-54
2022/05/17 07:40:06;;;;;;;6.83;6.13;;;;;;;;;;5040308;28;20682;-54
2022/05/17 07:42:50;;;;;;;6.83;6.23;;;;;;;;;;5050879;28;20208;-55
2022/05/17 07:45:17;;;;;;;6.87;5.67;;;;;;;;;;5067318;28;20180;-54
2022/05/17 07:47:43;;;;;;;6.57;5.97;;;;;;;;;;5067517;28;20212;-54
2022/05/17 07:50:09;;;;;;;7.10;6.40;;;;;;;;;;5058177;28;20165;-54
2022/05/17 07:52:35;;;;;;;6.57;5.83;;;;;;;;;;5049546;28;20162;-54
2022/05/17 07:55:01;;;;;;;6.73;6.17;;;;;;;;;;5060248;28;20169;-54
2022/05/17 07:57:28;;;;;;;6.83;6.23;;;;;;;;;;5030694;28;20276;-54
2022/05/17 07:59:54;;;;;;;8.20;6.83;;;;;;;;;;5055098;28;20181;-56
2022/05/17 08:02:20;;;;;;;8.20;7.40;;;;;;;;;;5032251;28;20182;-54
2022/05/17 08:04:47;;;;;;;11.10;7.13;;;;;;;;;;5056273;28;20198;-54
2022/05/17 08:07:13;;;;;;;7.90;7.03;;;;;;;;;;5049907;28;20162;-54
2022/05/17 08:09:39;;;;;;;8.10;7.30;;;;;;;;;;5065535;28;20317;-54
2022/05/17 08:12:07;;;;;;;8.83;7.53;;;;;;;;;;5041231;28;20173;-54
2022/05/17 08:14:35;;;;;;;11.27;7.83;;;;;;;;;;5049719;28;20616;-54
2022/05/17 08:17:01;;;;;;;9.23;8.40;;;;;;;;;;5053075;28;20584;-54
2022/05/17 08:19:30;;;;;;;9.47;8.30;;;;;;;;;;5048222;28;20188;-54
2022/05/17 08:21:57;;;;;;;12.03;8.07;;;;;;;;;;5048036;28;20181;-54
2022/05/17 08:24:23;;;;;;;8.97;7.07;;;;;;;;;;5043211;28;20189;-54
2022/05/17 08:29:33;;;;;;;9.83;8.17;;;;;;;;;;5067906;28;20175;-54
2022/05/17 08:34:44;;;;;;;8.83;7.77;;;;;;;;;;5062010;28;20240;-54
2022/05/17 08:37:10;;;;;;;10.93;7.97;;;;;;;;;;5051372;28;20532;-55
2022/05/17 08:39:36;;;;;;;9.40;7.63;;;;;;;;;;5056713;28;20299;-54
2022/05/17 08:42:11;;;;;;;9.40;7.93;;;;;;;;;;5064899;28;20224;-54
2022/05/17 08:44:44;;;;;;;9.40;7.13;;;;;;;;;;5038457;28;20200;-54
2022/05/17 08:47:24;;;;;;;10.80;7.60;;;;;;;;;;5039673;28;20173;-54
2022/05/17 08:49:55;;;;;;;9.07;8.17;;;;;;;;;;5046218;28;20533;-54
2022/05/17 08:52:23;;;;;;;9.17;7.97;;;;;;;;;;5053729;28;20161;-54
2022/05/17 08:55:12;;;;;;;7.20;6.50;;;;;;;;;;5064598;28;20271;-54
2022/05/17 08:58:05;;;;;;;8.53;7.70;;;;;;;;;;5050895;28;20188;-54
2022/05/17 09:00:36;;;;;;;8.07;7.27;;;;;;;;;;5016725;28;20212;-54
2022/05/17 09:03:38;;;;;;;10.10;7.40;;;;;;;;;;5058226;28;20216;-54
2022/05/17 09:06:22;;;;;;;11.47;8.93;;;;;;;;;;4985872;28;20746;-55
2022/05/17 09:08:58;;;;;;;10.43;7.87;;;;;;;;;;5048913;28;20338;-54
2022/05/17 09:11:27;;;;;;;10.83;8.57;;;;;;;;;;5030587;28;20562;-54
2022/05/17 09:14:00;;;;;;;8.17;7.37;;;;;;;;;;5042107;28;20165;-54
2022/05/17 09:16:27;;;;;;;8.43;7.53;;;;;;;;;;5050178;28;20261;-54
2022/05/17 09:18:56;;;;;;;7.80;6.63;;;;;;;;;;5063511;28;20187;-55
2022/05/17 09:21:26;;;;;;;8.90;8.10;;;;;;;;;;5066718;28;20209;-54
2022/05/17 09:23:52;;;;;;;10.43;9.17;;;;;;;;;;5061418;28;20287;-55
2022/05/17 09:26:19;;;;;;;12.53;9.43;;;;;;;;;;5056693;28;20353;-54
2022/05/17 09:28:47;;;;;;;10.00;7.60;;;;;;;;;;5065304;28;20176;-54
2022/05/17 09:31:34;;;;;;;10.00;7.37;;;;;;;;;;5062899;28;20157;-54
2022/05/17 09:34:01;;;;;;;8.57;7.78;;;;;;;;;;5051287;28;20885;-57
2022/05/17 09:36:34;;;;;;;10.37;8.27;;;;;;;;;;5034575;28;20176;-54
2022/05/17 09:39:00;;;;;;;7.60;6.80;;;;;;;;;;5046765;28;20195;-54
2022/05/17 09:41:34;;;;;;;7.60;6.27;;;;;;;;;;5047293;28;20588;-54
2022/05/17 09:44:14;;;;;;;8.37;7.47;;;;;;;;;;5051688;28;20489;-54
2022/05/17 09:46:48;;;;;;;7.60;5.93;;;;;;;;;;5067108;28;20236;-54
2022/05/17 09:55:05;;;;;;;8.73;6.57;;;;;;;;;;5055256;28;20192;-54
2022/05/17 09:57:32;;;;;;;9.43;8.43;;;;;;;;;;5048906;28;20209;-54
2022/05/17 10:00:12;;;;;;;9.43;6.40;;;;;;;;;;5050698;28;20252;-54
2022/05/17 10:02:50;;;;;;;6.73;6.10;;;;;;;;;;5059340;28;20489;-54
2022/05/17 10:05:19;;;;;;;6.77;6.07;;;;;;;;;;5065444;28;20222;-54
2022/05/17 10:07:50;;;;;;;7.63;6.60;;;;;;;;;;5046685;28;20683;-54
2022/05/17 10:10:29;;;;;;;8.73;6.37;;;;;;;;;;5046446;28;20185;-54
2022/05/17 10:12:58;;;;;;;8.83;6.30;;;;;;;;;;5052957;28;20263;-55
2022/05/17 10:15:26;;;;;;;8.10;6.20;;;;;;;;;;5056988;28;20173;-54
2022/05/17 10:18:00;;;;;;;7.30;5.67;;;;;;;;;;5051000;28;20171;-54
2022/05/17 10:20:30;;;;;;;7.60;5.50;;;;;;;;;;5039947;28;20201;-54
2022/05/17 10:22:59;;;;;;;6.00;5.47;;;;;;;;;;5060030;28;20518;-54
2022/05/17 10:25:55;;;;;;;6.97;6.27;;;;;;;;;;5046736;28;20608;-54
2022/05/17 10:28:44;;;;;;;7.13;6.43;;;;;;;;;;5029468;28;20219;-54
2022/05/17 10:31:11;;;;;;;8.10;6.00;;;;;;;;;;5046907;28;20191;-54
2022/05/17 10:33:50;;;;;;;7.77;6.60;;;;;;;;;;5049828;28;20215;-54
2022/05/17 10:36:23;;;;;;;7.57;5.90;;;;;;;;;;5066948;28;20163;-54
2022/05/17 10:39:08;;;;;;;7.63;6.23;;;;;;;;;;5060383;28;20660;-54
2022/05/17 10:41:34;;;;;;;7.07;5.90;;;;;;;;;;5061745;28;20198;-54
2022/05/17 10:44:00;;;;;;;6.30;5.67;;;;;;;;;;5030515;28;20287;-54
2022/05/17 10:46:30;;;;;;;6.87;6.17;;;;;;;;;;5062716;28;20186;-54
2022/05/17 10:49:06;;;;;;;8.20;6.37;;;;;;;;;;5048231;28;20698;-54
2022/05/17 10:51:50;;;;;;;8.87;6.50;;;;;;;;;;5051676;28;20207;-54
2022/05/17 10:54:35;;;;;;;9.20;7.00;;;;;;;;;;5056071;28;20249;-54
2022/05/17 10:57:26;;;;;;;7.53;6.37;;;;;;;;;;5058749;28;20178;-54
2022/05/17 11:00:14;;;;;;;6.63;5.83;;;;;;;;;;5032533;28;20196;-54
2022/05/17 11:02:59;;;;;;;11.10;6.40;;;;;;;;;;5068086;28;20170;-54
2022/05/17 11:05:40;;;;;;;8.10;5.57;;;;;;;;;;5030478;28;20206;-54
2022/05/17 11:08:28;;;;;;;6.57;5.87;;;;;;;;;;5051128;28;20180;-54
2022/05/17 11:10:54;;;;;;;8.67;6.13;;;;;;;;;;5034093;28;20199;-54
2022/05/17 11:13:30;;;;;;;7.03;6.33;;;;;;;;;;5054101;28;20169;-54
2022/05/17 11:16:01;;;;;;;9.80;6.03;;;;;;;;;;5046183;28;20180;-54
2022/05/17 11:18:39;;;;;;;6.33;5.73;;;;;;;;;;5066113;28;20177;-54
2022/05/17 11:21:10;;;;;;;6.67;5.90;;;;;;;;;;5053470;28;20702;-54
2022/05/17 11:24:00;;;;;;;7.93;5.67;;;;;;;;;;5060977;28;20688;-55
2022/05/17 11:26:36;;;;;;;7.07;5.23;;;;;;;;;;5055776;28;20264;-55
2022/05/17 11:29:21;;;;;;;6.33;5.73;;;;;;;;;;5051801;28;20280;-54
2022/05/17 11:31:58;;;;;;;6.10;5.50;;;;;;;;;;5054512;28;20757;-54
2022/05/17 11:34:26;;;;;;;6.27;5.67;;;;;;;;;;5063822;28;20531;-55
2022/05/17 11:36:53;;;;;;;6.53;5.80;;;;;;;;;;5067849;28;20655;-55
2022/05/17 11:39:32;;;;;;;5.73;5.10;;;;;;;;;;5047764;28;20200;-54
2022/05/17 11:42:10;;;;;;;6.03;4.97;;;;;;;;;;5057402;28;20205;-54
2022/05/17 11:44:41;;;;;;;7.27;4.87;;;;;;;;;;5030399;28;20287;-54
2022/05/17 11:47:26;;;;;;;8.90;5.77;;;;;;;;;;5050327;28;20184;-55
2022/05/17 11:49:52;;;;;;;5.93;4.90;;;;;;;;;;5049062;28;20252;-54
2022/05/17 11:52:24;;;;;;;8.90;5.47;;;;;;;;;;5058761;28;20235;-54
2022/05/17 11:54:51;;;;;;;5.07;4.67;;;;;;;;;;5041530;28;20196;-55
2022/05/17 11:57:24;;;;;;;7.40;6.63;;;;;;;;;;5051006;28;20199;-54
2022/05/17 11:59:54;;;;;;;10.83;9.97;;;;;;;;;;5041906;28;20175;-54
2022/05/17 12:02:39;;;;;;;9.60;8.80;;;;;;;;;;5036509;28;20622;-54
2022/05/17 12:05:06;;;;;;;6.37;4.70;;;;;;;;;;5065678;28;20322;-55
2022/05/17 12:07:32;;;;;;;6.23;4.50;;;;;;;;;;5063157;28;20176;-55
2022/05/17 12:10:19;;;;;;;9.83;5.20;;;;;;;;;;5063013;28;20180;-54
2022/05/17 12:13:00;;;;;;;8.33;5.30;;;;;;;;;;5049775;28;20181;-55
2022/05/17 12:15:29;;;;;;;6.20;4.43;;;;;;;;;;5063398;28;20339;-54
2022/05/17 12:18:12;;;;;;;6.57;4.70;;;;;;;;;;5049224;28;20161;-55
2022/05/17 12:20:45;;;;;;;4.90;4.13;;;;;;;;;;5054496;28;20176;-55
2022/05/17 12:23:18;;;;;;;9.80;9.17;;;;;;;;;;5062560;28;20177;-55
2022/05/17 12:25:59;;;;;;;4.83;4.37;;;;;;;;;;5024483;28;20272;-54
2022/05/17 12:28:33;;;;;;;5.67;4.43;;;;;;;;;;5031601;28;20173;-54
2022/05/17 12:31:01;;;;;;;5.83;4.63;;;;;;;;;;5035732;28;20177;-54
2022/05/17 12:33:30;;;;;;;5.63;4.70;;;;;;;;;;5030723;28;20189;-54
2022/05/17 12:36:11;;;;;;;6.03;4.40;;;;;;;;;;5029369;28;20198;-55
2022/05/17 12:44:15;;;;;;;4.43;3.97;;;;;;;;;;5027068;28;20925;-55
2022/05/17 12:46:42;;;;;;;6.00;4.97;;;;;;;;;;5033035;28;20286;-55
2022/05/17 12:49:14;;;;;;;6.40;4.20;;;;;;;;;;5029637;28;20173;-55
2022/05/17 12:51:41;;;;;;;5.10;4.47;;;;;;;;;;5027954;28;20847;-54
2022/05/17 12:54:13;;;;;;;5.30;3.83;;;;;;;;;;5024861;28;20187;-55
2022/05/17 12:56:43;;;;;;;4.73;3.83;;;;;;;;;;5026589;28;20190;-55
2022/05/17 12:59:11;;;;;;;7.07;4.00;;;;;;;;;;5034125;28;20189;-54
2022/05/17 13:01:38;;;;;;;5.20;4.03;;;;;;;;;;5026618;28;20592;-54
2022/05/17 13:04:12;;;;;;;5.60;3.70;;;;;;;;;;5031102;28;20635;-55
2022/05/17 13:06:49;;;;;;;5.60;3.70;;;;;;;;;;5030765;28;20633;-55
2022/05/17 13:09:17;;;;;;;4.27;3.87;;;;;;;;;;5032166;28;20257;-54
2022/05/17 13:11:43;;;;;;;5.17;3.63;;;;;;;;;;5026976;28;20645;-55
2022/05/17 13:14:11;;;;;;;3.83;3.50;;;;;;;;;;5023452;28;20182;-55
2022/05/17 13:16:40;;;;;;;6.47;4.03;;;;;;;;;;5042105;28;20188;-55
2022/05/17 13:19:09;;;;;;;3.80;3.50;;;;;;;;;;5046206;28;20185;-55
2022/05/17 13:21:37;;;;;;;4.33;3.47;;;;;;;;;;5029227;28;20457;-55
2022/05/17 13:24:23;;;;;;;5.90;4.15;;;;;;;;;;5027743;28;20760;-55
2022/05/17 13:26:50;;;;;;;5.20;3.87;;;;;;;;;;5026851;28;20224;-55
2022/05/17 13:29:33;;;;;;;4.70;4.00;;;;;;;;;;5036419;28;20234;-54
2022/05/17 13:32:00;;;;;;;8.87;3.80;;;;;;;;;;5054732;28;20275;-55
2022/05/17 13:34:31;;;;;;;4.23;3.37;;;;;;;;;;5050271;28;20679;-54
2022/05/17 13:37:13;;;;;;;6.10;3.73;;;;;;;;;;5054172;28;20586;-56
2022/05/17 13:39:50;;;;;;;6.63;3.97;;;;;;;;;;5050780;28;20555;-55
2022/05/17 13:42:22;;;;;;;5.67;3.73;;;;;;;;;;5033981;28;20303;-54
2022/05/17 13:45:07;;;;;;;6.37;4.07;;;;;;;;;;5052137;28;20283;-55
2022/05/17 13:47:34;;;;;;;5.37;3.93;;;;;;;;;;5049672;28;20207;-55
2022/05/17 13:50:16;;;;;;;4.63;3.93;;;;;;;;;;5050512;28;20642;-54
2022/05/17 13:52:44;;;;;;;4.50;3.97;;;;;;;;;;5046826;28;20288;-54
2022/05/17 13:55:31;;;;;;;5.33;3.87;;;;;;;;;;5048337;28;20169;-54
2022/05/17 13:57:57;;;;;;;6.70;3.87;;;;;;;;;;5049129;28;20188;-55
2022/05/17 14:00:25;;;;;;;5.63;4.23;;;;;;;;;;5042365;28;20268;-55
2022/05/17 14:02:52;;;;;;;4.00;3.37;;;;;;;;;;5048978;28;20189;-55
2022/05/17 14:05:21;;;;;;;5.23;4.10;;;;;;;;;;5043057;28;20208;-55
2022/05/17 14:11:49;;;;;;;4.40;3.40;;;;;;;;;;5038097;28;20184;-55
2022/05/17 14:13:29;;;;;;;4.30;4.00;;;;;;;;;;5050791;28;20284;-55
2022/05/17 14:15:56;;;;;;;4.50;3.73;;;;;;;;;;5049735;28;20259;-55
2022/05/17 14:18:24;;;;;;;3.43;3.13;;;;;;;;;;5046583;28;20196;-55
2022/05/17 14:20:54;;;;;;;3.83;3.53;;;;;;;;;;5063028;28;20189;-55
2022/05/17 14:23:24;;;;;;;8.57;7.90;;;;;;;;;;5049997;28;20180;-55
2022/05/17 14:25:50;;;;;;;6.07;3.80;;;;;;;;;;5042916;28;20182;-55
2022/05/17 14:28:17;;;;;;;3.77;3.47;;;;;;;;;;5059454;28;20185;-55
2022/05/17 14:30:43;;;;;;;4.43;3.47;;;;;;;;;;5061352;28;20624;-55
2022/05/17 14:33:09;;;;;;;4.40;3.77;;;;;;;;;;5036879;28;20200;-55
2022/05/17 14:35:36;;;;;;;6.03;4.30;;;;;;;;;;5033989;28;20328;-55
2022/05/17 14:38:03;;;;;;;6.13;3.60;;;;;;;;;;5050761;28;20185;-55
2022/05/17 14:40:30;;;;;;;5.93;3.70;;;;;;;;;;5050673;28;20208;-55
2022/05/17 14:42:56;;;;;;;5.60;3.40;;;;;;;;;;5070561;28;20181;-55
2022/05/17 14:45:23;;;;;;;5.03;3.67;;;;;;;;;;5053263;28;20608;-55
2022/05/17 14:47:49;;;;;;;4.03;3.70;;;;;;;;;;5032317;28;20173;-55
2022/05/17 14:50:20;;;;;;;4.03;3.43;;;;;;;;;;5032645;28;20500;-55
2022/05/17 14:52:48;;;;;;;5.93;3.63;;;;;;;;;;5053788;28;20280;-55
2022/05/17 14:55:17;;;;;;;5.93;4.00;;;;;;;;;;5056350;28;20580;-55
2022/05/17 14:57:44;;;;;;;4.27;3.33;;;;;;;;;;5048708;28;20208;-55
2022/05/17 15:00:11;;;;;;;5.13;4.67;;;;;;;;;;5055026;28;20197;-55
2022/05/17 15:02:38;;;;;;;4.63;3.23;;;;;;;;;;5043763;28;20227;-55
2022/05/17 15:05:06;;;;;;;3.80;3.50;;;;;;;;;;5023785;28;20228;-54
2022/05/17 15:07:33;;;;;;;3.50;3.20;;;;;;;;;;5052143;28;20171;-54
2022/05/17 15:10:10;;;;;;;3.87;3.57;;;;;;;;;;5057605;28;20651;-55
2022/05/17 15:12:36;;;;;;;4.03;3.80;;;;;;;;;;5056624;28;20611;-55
2022/05/17 15:15:03;;;;;;;5.63;4.90;;;;;;;;;;5036979;28;20640;-56
2022/05/17 15:17:30;;;;;;;5.03;3.43;;;;;;;;;;5031180;28;20170;-55
2022/05/17 15:19:57;;;;;;;3.97;3.57;;;;;;;;;;5029882;28;20636;-55